Portada
METAR-TAF:

METAR-TAF

Aeroports :

Windham Airport

Willimantic, Connecticut, Estats Units d'Amèrica

latitud: 41-44-31N, longitud: 072-11-01W, altitud: 75 m

Observació

L'informe es va fer fa 16 minuts, a les 20:19 UTC
Vent 3 kt amb direcció variable
Temperatura 21°C
Humitat 83%
Pressió 1010 hPa
Visibilitat: 8.0 km
Cel ennuvolat a una alçada de 4800 ft
Cel cobert a una alçada de 6500 ft
pluja, boirina

METAR: KIJD 162019Z AUTO VRB03KT 5SM -RA BR BKN048 OVC065 21/18 A2983 RMK AO2 P0002 T02060183

Hora: 16:35 (20:35 UTC)


TAF: manca

Observacions i pronòstics meteorològics de més de 4000 aeroports (METAR i TAF).

Les estacions disponibles són els punts grocs i vermells al mapa.

Posi el ratolí al punt desitjat per veure el nom de l'estació.

Feu clic per veure les observacions i els pronòstics meteorològics.

Per canviar el mapa: feu clic els botons verds amb una creu de color negre per apropar; al botó verd amb un guió per allunyar la imatge; o en les fletxes verdes per a mapes adjacents.


METAR-TAF: